Time;durP1;ratioP1;P1;durP2;ratioP2;P2;SDS_P1;SDS_P2;PMS_P1;PMS_P2;Temp;Humidity;BMP_temperature;BMP_pressure;BME280_temperature;BME280_humidity;BME280_pressure;Samples;Min_cycle;Max_cycle;Signal;HPM_P1;HPM_P2
2021/08/01 00:01:35;;;;;;;5.80;3.88;;;17.10;90.70;;;;;;4861566;29;20418;-88
2021/08/01 00:04:00;;;;;;;6.85;4.22;;;17.10;90.80;;;;;;4860977;29;20423;-88
2021/08/01 00:06:26;;;;;;;6.25;4.38;;;17.10;90.50;;;;;;4860856;29;20049;-88
2021/08/01 00:08:53;;;;;;;6.60;4.15;;;17.10;90.70;;;;;;4860625;29;20518;-88
2021/08/01 00:11:18;;;;;;;5.80;4.03;;;17.10;90.70;;;;;;4861220;29;20096;-89
2021/08/01 00:13:44;;;;;;;8.05;5.22;;;17.10;90.40;;;;;;4860973;29;20427;-88
2021/08/01 00:16:10;;;;;;;8.90;5.15;;;17.00;90.60;;;;;;4861181;29;20132;-89
2021/08/01 00:18:36;;;;;;;6.10;4.03;;;17.00;90.70;;;;;;4861119;29;20081;-88
2021/08/01 00:21:02;;;;;;;7.22;4.10;;;17.00;90.90;;;;;;4860339;29;20459;-88
2021/08/01 00:23:28;;;;;;;6.15;4.30;;;17.00;91.00;;;;;;4860479;29;20502;-89
2021/08/01 00:25:56;;;;;;;5.82;4.47;;;17.00;90.80;;;;;;4861483;29;20060;-88
2021/08/01 00:28:22;;;;;;;8.50;4.70;;;17.00;91.10;;;;;;4860504;29;20046;-88
2021/08/01 00:30:47;;;;;;;6.00;4.40;;;17.00;91.40;;;;;;4861541;29;20466;-88
2021/08/01 00:33:13;;;;;;;6.70;4.28;;;16.90;91.20;;;;;;4861081;29;20507;-88
2021/08/01 00:35:39;;;;;;;6.50;4.85;;;16.90;90.90;;;;;;4860450;29;20065;-87
2021/08/01 00:38:06;;;;;;;6.10;4.30;;;16.90;91.40;;;;;;4860996;29;20456;-88
2021/08/01 00:40:32;;;;;;;9.80;4.55;;;16.90;91.30;;;;;;4861016;29;20462;-87
2021/08/01 00:42:58;;;;;;;7.45;5.18;;;16.90;91.20;;;;;;4859688;29;20079;-88
2021/08/01 00:45:23;;;;;;;7.07;5.07;;;16.90;91.20;;;;;;4849637;29;20086;-88
2021/08/01 00:47:49;;;;;;;6.80;4.70;;;16.90;91.40;;;;;;4842258;29;20050;-88
2021/08/01 00:50:15;;;;;;;6.32;4.70;;;16.90;91.50;;;;;;4842186;29;20100;-87
2021/08/01 00:52:43;;;;;;;6.15;4.60;;;16.80;91.40;;;;;;4842162;29;20054;-87
2021/08/01 00:55:10;;;;;;;6.22;4.43;;;16.80;91.70;;;;;;4841020;29;20076;-87
2021/08/01 00:57:36;;;;;;;6.32;5.15;;;16.80;91.80;;;;;;4842682;29;20061;-87
2021/08/01 01:02:57;;;;;;;7.18;4.97;;;16.80;92.00;;;;;;4841668;29;20102;-87
2021/08/01 01:05:32;;;;;;;7.30;4.10;;;16.80;92.10;;;;;;4841595;29;20053;-88
2021/08/01 01:08:13;;;;;;;6.28;4.53;;;16.80;91.90;;;;;;4842271;29;20168;-88
2021/08/01 01:10:42;;;;;;;6.70;4.97;;;16.70;91.80;;;;;;4859900;29;20054;-88
2021/08/01 01:13:14;;;;;;;6.57;5.00;;;16.70;92.40;;;;;;4860549;29;20132;-87
2021/08/01 01:15:47;;;;;;;9.23;5.20;;;16.70;92.00;;;;;;4860158;29;20109;-88
2021/08/01 01:18:17;;;;;;;;;;;16.70;92.10;;;;;;4860346;29;20052;-87
2021/08/01 01:21:01;;;;;;;6.78;5.22;;;16.60;90.50;;;;;;4863415;29;20293;-87
2021/08/01 01:24:15;;;;;;;6.57;4.65;;;16.70;91.90;;;;;;4862533;29;20059;-87
2021/08/01 01:26:54;;;;;;;7.45;4.85;;;16.60;91.30;;;;;;4856625;29;20113;-87
2021/08/01 01:29:28;;;;;;;7.63;5.00;;;16.60;91.60;;;;;;4864102;29;20118;-88
2021/08/01 01:31:57;;;;;;;;;;;16.60;91.90;;;;;;4863874;29;20094;-87
2021/08/01 01:34:39;;;;;;;7.95;5.25;;;16.50;90.40;;;;;;4864305;29;19972;-87
2021/08/01 01:37:07;;;;;;;6.82;4.80;;;16.60;91.90;;;;;;4850050;29;20499;-88
2021/08/01 01:39:38;;;;;;;6.88;5.28;;;16.60;91.90;;;;;;4845829;29;20086;-87
2021/08/01 01:42:05;;;;;;;8.15;5.20;;;16.60;91.90;;;;;;4846197;29;20054;-86
2021/08/01 01:44:34;;;;;;;7.78;4.85;;;16.60;91.70;;;;;;4845024;29;20054;-88
2021/08/01 01:47:00;;;;;;;6.47;4.90;;;16.60;91.90;;;;;;4845210;29;20562;-88
2021/08/01 01:49:26;;;;;;;7.32;5.15;;;16.60;91.80;;;;;;4845411;29;20136;-88
2021/08/01 01:51:53;;;;;;;8.13;4.93;;;16.50;91.90;;;;;;4845132;29;20054;-87
2021/08/01 01:54:21;;;;;;;6.20;4.80;;;16.50;91.70;;;;;;4845015;29;20046;-87
2021/08/01 01:56:47;;;;;;;7.43;5.50;;;16.50;91.60;;;;;;4845657;29;20049;-88
2021/08/01 01:59:33;;;;;;;6.35;4.68;;;16.50;91.70;;;;;;4844054;29;20061;-87
2021/08/01 02:01:59;;;;;;;8.55;4.97;;;16.50;91.50;;;;;;4854767;29;20065;-87
2021/08/01 02:04:24;;;;;;;6.43;5.20;;;16.50;91.30;;;;;;4863872;29;20102;-87
2021/08/01 02:06:50;;;;;;;7.75;5.10;;;16.50;91.60;;;;;;4862779;29;20061;-87
2021/08/01 02:09:24;;;;;;;7.75;5.45;;;16.50;91.90;;;;;;4863452;29;20046;-88
2021/08/01 02:12:13;;;;;;;7.15;4.82;;;16.50;92.00;;;;;;4863496;29;20056;-87
2021/08/01 02:14:47;;;;;;;7.40;5.57;;;16.40;91.60;;;;;;4863791;29;20097;-88
2021/08/01 02:17:19;;;;;;;6.75;5.03;;;16.40;91.70;;;;;;4863496;29;20117;-88
2021/08/01 02:19:48;;;;;;;6.72;5.25;;;16.40;91.70;;;;;;4862543;29;20046;-87
2021/08/01 02:22:14;;;;;;;8.10;5.32;;;16.40;92.00;;;;;;4849186;29;20137;-88
2021/08/01 02:24:42;;;;;;;7.55;4.95;;;16.40;92.10;;;;;;4844691;29;20046;-88
2021/08/01 02:27:09;;;;;;;6.88;5.20;;;16.40;92.00;;;;;;4843817;29;20081;-88
2021/08/01 02:29:36;;;;;;;7.88;5.53;;;16.40;91.90;;;;;;4845104;29;20046;-88
2021/08/01 02:32:02;;;;;;;7.72;5.28;;;16.40;91.90;;;;;;4843862;29;20142;-88
2021/08/01 02:34:28;;;;;;;6.80;5.60;;;16.40;91.70;;;;;;4844193;29;20118;-87
2021/08/01 02:36:54;;;;;;;7.35;5.00;;;16.40;91.90;;;;;;4844729;29;20050;-88
2021/08/01 02:39:22;;;;;;;8.52;6.28;;;16.40;91.50;;;;;;4843352;29;20125;-87
2021/08/01 02:41:50;;;;;;;8.75;5.32;;;16.40;91.50;;;;;;4842469;29;20115;-88
2021/08/01 02:44:19;;;;;;;8.85;5.57;;;16.40;91.40;;;;;;4843368;29;20137;-88
2021/08/01 02:46:45;;;;;;;8.07;5.57;;;16.40;91.40;;;;;;4844947;29;20054;-87
2021/08/01 02:49:17;;;;;;;6.70;5.18;;;16.40;91.60;;;;;;4843798;29;20121;-87
2021/08/01 02:51:47;;;;;;;7.35;5.65;;;16.40;91.30;;;;;;4844301;29;20062;-86
2021/08/01 02:54:13;;;;;;;8.35;5.70;;;16.40;91.00;;;;;;4844934;29;20054;-86
2021/08/01 02:56:39;;;;;;;8.70;5.55;;;16.40;91.40;;;;;;4862330;29;20057;-87
2021/08/01 02:59:06;;;;;;;7.38;5.15;;;16.30;91.30;;;;;;4862706;29;20053;-87
2021/08/01 03:01:32;;;;;;;7.72;5.60;;;16.40;91.30;;;;;;4853590;29;20503;-86
2021/08/01 03:03:59;;;;;;;6.90;5.20;;;16.30;91.10;;;;;;4844183;29;20050;-86
2021/08/01 03:06:32;;;;;;;6.93;5.40;;;16.30;90.90;;;;;;4844150;29;20050;-86
2021/08/01 03:09:03;;;;;;;7.85;5.88;;;16.30;90.90;;;;;;4843285;29;20050;-87
2021/08/01 03:11:35;;;;;;;7.88;5.57;;;16.30;91.00;;;;;;4844146;29;20057;-87
2021/08/01 03:14:02;;;;;;;8.32;5.97;;;16.30;91.00;;;;;;4843736;29;20436;-86
2021/08/01 03:16:28;;;;;;;7.95;5.72;;;16.30;91.20;;;;;;4843136;29;20057;-87
2021/08/01 03:18:54;;;;;;;9.43;6.18;;;16.30;90.80;;;;;;4843626;29;20050;-86
2021/08/01 03:21:19;;;;;;;7.65;5.38;;;16.30;90.70;;;;;;4843793;29;20057;-87
2021/08/01 03:23:45;;;;;;;8.57;5.95;;;16.30;90.60;;;;;;4843358;29;20502;-86
2021/08/01 03:26:10;;;;;;;9.55;6.22;;;16.30;90.70;;;;;;4843944;29;20137;-87
2021/08/01 03:28:36;;;;;;;9.38;6.25;;;16.30;90.80;;;;;;4843962;29;20054;-87
2021/08/01 03:31:02;;;;;;;9.15;6.40;;;16.30;90.70;;;;;;4846786;29;20490;-86
2021/08/01 03:33:27;;;;;;;7.72;6.28;;;16.30;91.20;;;;;;4861637;29;20487;-86
2021/08/01 03:35:53;;;;;;;8.27;6.38;;;16.30;91.20;;;;;;4862145;29;20080;-86
2021/08/01 03:38:19;;;;;;;9.15;6.72;;;16.30;91.30;;;;;;4860731;29;20490;-86
2021/08/01 03:40:45;;;;;;;12.32;8.30;;;16.30;91.40;;;;;;4862101;29;20053;-86
2021/08/01 03:43:10;;;;;;;10.52;7.03;;;16.30;91.10;;;;;;4861686;29;20121;-86
2021/08/01 03:45:37;;;;;;;12.05;9.48;;;16.30;91.10;;;;;;4861215;29;20060;-85
2021/08/01 03:48:03;;;;;;;16.65;12.35;;;16.30;91.30;;;;;;4861429;29;20426;-86
2021/08/01 03:50:28;;;;;;;15.95;12.77;;;16.30;91.30;;;;;;4861695;29;20137;-86
2021/08/01 03:52:54;;;;;;;21.13;13.90;;;16.40;91.60;;;;;;4861167;29;20505;-86
2021/08/01 03:55:19;;;;;;;10.18;7.80;;;16.30;91.80;;;;;;4849790;29;20056;-84
2021/08/01 03:57:45;;;;;;;9.52;7.50;;;16.30;91.30;;;;;;4842309;29;20106;-86
2021/08/01 04:00:11;;;;;;;10.95;8.00;;;16.30;91.30;;;;;;4842832;29;20460;-86
2021/08/01 04:02:38;;;;;;;18.52;13.82;;;16.30;91.50;;;;;;4843152;29;20054;-86
2021/08/01 04:05:05;;;;;;;13.13;10.38;;;16.30;91.80;;;;;;4842911;29;20443;-86
2021/08/01 04:07:36;;;;;;;13.63;10.77;;;16.30;91.50;;;;;;4843401;29;20110;-85
2021/08/01 04:10:02;;;;;;;12.73;9.73;;;16.30;91.30;;;;;;4842757;29;20054;-85
2021/08/01 04:12:28;;;;;;;11.85;9.00;;;16.30;91.20;;;;;;4842257;29;20053;-86
2021/08/01 04:14:54;;;;;;;12.75;9.70;;;16.40;90.90;;;;;;4851766;29;20392;-85
2021/08/01 04:17:19;;;;;;;11.77;9.40;;;16.30;90.80;;;;;;4860960;29;20073;-85
2021/08/01 04:19:46;;;;;;;10.90;8.95;;;16.30;90.70;;;;;;4860873;29;20061;-85
2021/08/01 04:22:15;;;;;;;11.85;9.32;;;16.30;90.80;;;;;;4860924;29;20126;-85
2021/08/01 04:24:41;;;;;;;14.00;9.13;;;16.30;90.90;;;;;;4861175;29;20190;-85
2021/08/01 04:27:07;;;;;;;16.20;13.60;;;16.30;91.10;;;;;;4860288;29;20105;-85
2021/08/01 04:29:33;;;;;;;11.90;9.30;;;16.30;91.30;;;;;;4861325;29;20114;-85
2021/08/01 04:31:59;;;;;;;12.48;9.30;;;16.30;91.40;;;;;;4860666;29;20057;-85
2021/08/01 04:34:25;;;;;;;11.95;9.77;;;16.30;91.10;;;;;;4859973;29;20050;-84
2021/08/01 04:36:51;;;;;;;11.80;9.52;;;16.40;91.00;;;;;;4861092;29;20072;-85
2021/08/01 04:39:16;;;;;;;12.38;9.88;;;16.40;90.90;;;;;;4860785;29;20053;-85
2021/08/01 04:41:43;;;;;;;13.27;10.25;;;16.30;90.90;;;;;;4860456;29;20062;-85
2021/08/01 04:44:08;;;;;;;22.33;17.30;;;16.40;91.10;;;;;;4860901;29;20061;-85
2021/08/01 04:46:35;;;;;;;12.82;9.82;;;16.40;91.70;;;;;;4860821;29;20057;-85
2021/08/01 04:49:00;;;;;;;20.17;16.08;;;16.30;91.60;;;;;;4859225;29;20053;-84
2021/08/01 04:51:26;;;;;;;15.40;12.10;;;16.40;91.90;;;;;;4842174;29;20054;-85
2021/08/01 04:53:52;;;;;;;12.38;11.02;;;16.40;91.60;;;;;;4841759;29;20571;-85
2021/08/01 04:56:17;;;;;;;13.13;11.18;;;16.40;91.30;;;;;;4840191;29;20086;-85
2021/08/01 04:58:43;;;;;;;14.07;11.35;;;16.30;91.30;;;;;;4842315;29;20137;-84
2021/08/01 05:01:13;;;;;;;16.65;12.13;;;16.30;91.20;;;;;;4841357;29;20157;-85
2021/08/01 05:03:39;;;;;;;13.90;11.25;;;16.40;91.30;;;;;;4842417;29;20050;-85
2021/08/01 05:06:05;;;;;;;16.00;12.10;;;16.40;91.60;;;;;;4842092;29;20091;-85
2021/08/01 05:08:30;;;;;;;20.75;15.07;;;16.40;91.40;;;;;;4841995;29;20074;-85
2021/08/01 05:10:56;;;;;;;15.88;12.88;;;16.40;91.60;;;;;;4859118;29;20061;-85
2021/08/01 05:13:22;;;;;;;20.13;14.90;;;16.40;91.70;;;;;;4858668;29;20112;-84
2021/08/01 05:15:47;;;;;;;15.23;12.18;;;16.40;91.70;;;;;;4841878;29;20503;-86
2021/08/01 05:18:13;;;;;;;17.88;14.25;;;16.40;91.60;;;;;;4842412;29;20057;-85
2021/08/01 05:20:43;;;;;;;24.33;18.63;;;16.40;91.70;;;;;;4854323;29;20112;-85
2021/08/01 05:23:09;;;;;;;31.42;20.98;;;16.40;92.20;;;;;;4859507;29;20105;-85
2021/08/01 05:25:35;;;;;;;21.77;17.95;;;16.40;92.60;;;;;;4860554;29;20053;-83
2021/08/01 05:28:00;;;;;;;22.83;18.67;;;16.40;92.60;;;;;;4860317;29;20057;-84
2021/08/01 05:30:26;;;;;;;23.77;19.67;;;16.50;92.70;;;;;;4844438;29;20050;-85
2021/08/01 05:32:52;;;;;;;24.60;19.95;;;16.50;93.00;;;;;;4842284;29;20050;-85
2021/08/01 05:35:17;;;;;;;26.15;19.20;;;16.50;93.20;;;;;;4841885;29;20057;-85
2021/08/01 05:37:43;;;;;;;25.08;20.70;;;16.50;93.20;;;;;;4841608;29;20132;-85
2021/08/01 05:40:10;;;;;;;21.77;17.92;;;16.50;93.30;;;;;;4842143;29;20050;-84
2021/08/01 05:42:37;;;;;;;24.50;18.25;;;16.50;93.70;;;;;;4842124;29;20146;-84
2021/08/01 05:45:04;;;;;;;26.40;19.00;;;16.50;93.30;;;;;;4841363;29;20114;-85
2021/08/01 05:47:36;;;;;;;23.50;19.15;;;16.50;93.50;;;;;;4842153;29;20125;-83
2021/08/01 05:50:02;;;;;;;21.58;16.92;;;16.50;93.60;;;;;;4849368;29;20061;-85
2021/08/01 05:52:28;;;;;;;23.45;18.73;;;16.50;93.60;;;;;;4859679;29;20053;-86
2021/08/01 05:54:54;;;;;;;22.27;17.35;;;16.50;93.70;;;;;;4859240;29;20052;-86
2021/08/01 05:57:20;;;;;;;21.40;18.15;;;16.50;93.80;;;;;;4858765;29;20057;-87
2021/08/01 05:59:45;;;;;;;19.48;14.90;;;16.50;93.90;;;;;;4858945;29;20477;-85
2021/08/01 06:02:12;;;;;;;23.08;17.85;;;16.50;93.60;;;;;;4858660;29;20495;-85
2021/08/01 06:04:38;;;;;;;16.27;13.10;;;16.50;93.80;;;;;;4855293;29;20687;-85
2021/08/01 06:07:05;;;;;;;21.83;17.30;;;16.50;93.20;;;;;;4861048;29;20084;-86
2021/08/01 06:09:32;;;;;;;19.48;15.00;;;16.50;93.40;;;;;;4863617;29;20053;-86
2021/08/01 06:11:58;;;;;;;18.95;14.07;;;16.50;93.50;;;;;;4862407;29;20136;-81
2021/08/01 06:14:24;;;;;;;15.05;12.95;;;16.50;93.30;;;;;;4862614;29;20111;-85
2021/08/01 06:16:49;;;;;;;14.30;12.32;;;16.50;93.10;;;;;;4863646;29;20061;-84
2021/08/01 06:19:15;;;;;;;15.82;12.75;;;16.50;93.10;;;;;;4861031;29;20046;-84
2021/08/01 06:21:41;;;;;;;15.50;12.90;;;16.50;93.00;;;;;;4863762;29;20072;-85
2021/08/01 06:24:07;;;;;;;13.93;11.63;;;16.50;92.90;;;;;;4863571;29;20125;-85
2021/08/01 06:26:33;;;;;;;17.38;11.00;;;16.50;93.20;;;;;;4863744;29;20106;-86
2021/08/01 06:28:58;;;;;;;15.95;11.40;;;16.50;93.30;;;;;;4863569;29;20452;-87
2021/08/01 06:31:24;;;;;;;13.65;10.93;;;16.50;93.30;;;;;;4863523;29;20056;-87
2021/08/01 06:33:50;;;;;;;15.05;12.10;;;16.60;93.40;;;;;;4862849;29;20061;-86
2021/08/01 06:36:16;;;;;;;14.07;11.55;;;16.60;93.40;;;;;;4862510;29;20053;-87
2021/08/01 06:38:44;;;;;;;16.70;12.30;;;16.60;93.10;;;;;;4863499;29;20053;-87
2021/08/01 06:41:10;;;;;;;17.10;13.75;;;16.60;93.20;;;;;;4862588;29;20375;-86
2021/08/01 06:43:37;;;;;;;17.70;13.65;;;16.60;93.50;;;;;;4863239;29;20506;-84
2021/08/01 06:46:04;;;;;;;13.02;10.63;;;16.60;93.60;;;;;;4862892;29;20061;-85
2021/08/01 06:48:29;;;;;;;13.82;11.52;;;16.60;93.50;;;;;;4862683;29;20056;-83
2021/08/01 06:50:55;;;;;;;13.65;10.93;;;16.60;93.20;;;;;;4861573;29;20061;-87
2021/08/01 06:53:21;;;;;;;13.38;10.40;;;16.60;93.00;;;;;;4862769;29;20053;-86
2021/08/01 06:55:47;;;;;;;13.95;11.18;;;16.60;92.70;;;;;;4862594;29;20474;-85
2021/08/01 06:58:19;;;;;;;15.52;12.73;;;16.60;92.70;;;;;;4862852;29;20491;-85
2021/08/01 07:00:49;;;;;;;14.13;12.18;;;16.60;92.80;;;;;;4862619;29;20076;-85
2021/08/01 07:03:15;;;;;;;14.38;11.43;;;16.60;92.80;;;;;;4862612;29;20089;-85
2021/08/01 07:05:41;;;;;;;12.90;10.32;;;16.60;92.90;;;;;;4861076;29;20507;-85
2021/08/01 07:08:06;;;;;;;13.63;11.18;;;16.60;92.90;;;;;;4861697;29;20506;-84
2021/08/01 07:10:32;;;;;;;12.18;10.40;;;16.60;92.70;;;;;;4862787;29;20057;-85
2021/08/01 07:13:05;;;;;;;13.70;10.98;;;16.70;92.70;;;;;;4862589;29;20490;-84
2021/08/01 07:15:31;;;;;;;12.18;10.50;;;16.60;92.50;;;;;;4861853;29;20491;-84
2021/08/01 07:17:58;;;;;;;13.65;11.30;;;16.60;92.40;;;;;;4862454;29;20069;-84
2021/08/01 07:20:24;;;;;;;16.15;13.73;;;16.60;92.60;;;;;;4861766;29;20060;-85
2021/08/01 07:22:50;;;;;;;15.13;12.98;;;16.60;92.90;;;;;;4861739;29;20053;-84
2021/08/01 07:25:16;;;;;;;15.23;12.68;;;16.70;93.20;;;;;;4860519;29;20056;-83
2021/08/01 07:27:42;;;;;;;12.27;10.93;;;16.70;93.30;;;;;;4843728;29;20046;-85
2021/08/01 07:30:09;;;;;;;14.07;11.38;;;16.70;93.10;;;;;;4849311;29;20052;-85
2021/08/01 07:32:34;;;;;;;13.20;10.07;;;16.70;93.20;;;;;;4862265;29;20517;-85
2021/08/01 07:35:00;;;;;;;11.50;8.40;;;16.70;93.10;;;;;;4861654;29;20050;-81
2021/08/01 07:37:26;;;;;;;9.20;7.25;;;16.70;93.20;;;;;;4861404;29;20049;-81
2021/08/01 07:39:51;;;;;;;7.60;5.90;;;16.70;93.50;;;;;;4850884;29;20053;-81
2021/08/01 07:42:17;;;;;;;5.28;3.60;;;16.70;93.60;;;;;;4852326;29;20570;-82
2021/08/01 07:44:48;;;;;;;5.60;3.65;;;16.70;93.70;;;;;;4842564;29;20087;-82
2021/08/01 07:47:15;;;;;;;5.22;3.35;;;16.70;93.70;;;;;;4854483;29;20046;-83
2021/08/01 07:49:41;;;;;;;7.68;6.40;;;16.70;93.60;;;;;;4850847;29;20053;-83
2021/08/01 07:52:07;;;;;;;5.95;3.95;;;16.70;93.40;;;;;;4857476;29;20140;-84
2021/08/01 07:54:33;;;;;;;6.00;4.60;;;16.70;93.40;;;;;;4861684;29;20116;-84
2021/08/01 07:56:58;;;;;;;5.63;3.53;;;16.70;93.50;;;;;;4843432;29;20058;-84
2021/08/01 07:59:24;;;;;;;6.40;4.28;;;16.60;93.60;;;;;;4851307;29;20140;-84
2021/08/01 08:01:50;;;;;;;5.90;4.53;;;16.70;93.60;;;;;;4860290;29;20410;-86
2021/08/01 08:04:15;;;;;;;4.95;2.90;;;16.60;93.50;;;;;;4859222;29;20061;-84
2021/08/01 08:06:41;;;;;;;7.47;6.20;;;16.60;93.50;;;;;;4860140;29;20041;-85
2021/08/01 08:09:07;;;;;;;3.63;2.10;;;16.60;93.40;;;;;;4849003;29;20494;-84
2021/08/01 08:11:32;;;;;;;6.90;5.28;;;16.60;93.40;;;;;;4842206;29;20130;-84
2021/08/01 08:13:58;;;;;;;7.10;3.90;;;16.60;93.30;;;;;;4842801;29;20054;-85
2021/08/01 08:16:24;;;;;;;4.47;3.08;;;16.60;93.20;;;;;;4843310;29;20080;-91
2021/08/01 08:18:50;;;;;;;6.70;4.35;;;16.60;93.30;;;;;;4842672;29;20061;-91
2021/08/01 08:21:19;;;;;;;5.35;2.20;;;16.60;93.30;;;;;;4843590;29;20065;-91
2021/08/01 08:23:45;;;;;;;4.60;2.50;;;16.60;93.40;;;;;;4854008;29;20060;-89
2021/08/01 08:26:11;;;;;;;3.90;2.10;;;16.60;93.40;;;;;;4861759;29;20050;-92
2021/08/01 08:28:37;;;;;;;5.13;2.50;;;16.60;93.50;;;;;;4862314;29;20126;-89
2021/08/01 08:31:12;;;;;;;5.20;3.25;;;16.60;93.40;;;;;;4861574;29;20056;-91
2021/08/01 08:33:51;;;;;;;4.78;2.92;;;16.60;93.40;;;;;;4862335;29;20113;-90
2021/08/01 08:36:28;;;;;;;4.20;3.00;;;16.60;93.40;;;;;;4861017;29;20502;-89
2021/08/01 08:38:56;;;;;;;4.90;2.33;;;16.60;93.40;;;;;;4861614;29;20064;-87
2021/08/01 08:41:24;;;;;;;4.28;2.60;;;16.50;93.60;;;;;;4861494;29;20046;-87
2021/08/01 08:44:02;;;;;;;4.50;2.40;;;16.60;93.70;;;;;;4861796;29;20426;-89
2021/08/01 08:46:34;;;;;;;4.53;2.20;;;16.50;93.60;;;;;;4861162;29;20056;-91
2021/08/01 08:49:21;;;;;;;3.47;1.90;;;16.50;93.70;;;;;;4861707;29;20053;-89
2021/08/01 08:51:48;;;;;;;3.72;1.60;;;16.50;93.60;;;;;;4857936;29;20054;-90
2021/08/01 08:54:24;;;;;;;5.13;2.25;;;16.50;93.70;;;;;;4844658;29;20392;-85
2021/08/01 08:56:56;;;;;;;3.67;1.67;;;16.50;93.70;;;;;;4862920;29;20108;-83
2021/08/01 08:59:22;;;;;;;3.20;2.00;;;16.60;93.80;;;;;;4860781;29;20399;-84
2021/08/01 09:01:48;;;;;;;2.88;1.75;;;16.60;93.70;;;;;;4860202;29;20093;-83
2021/08/01 09:04:15;;;;;;;3.05;1.80;;;16.60;93.80;;;;;;4860958;29;20563;-83
2021/08/01 09:06:41;;;;;;;3.40;1.75;;;16.60;93.70;;;;;;4860953;29;20570;-83
2021/08/01 09:09:09;;;;;;;2.88;1.67;;;16.60;93.80;;;;;;4860144;29;20084;-84
2021/08/01 09:11:35;;;;;;;2.20;1.40;;;16.60;93.80;;;;;;4860980;29;20057;-84
2021/08/01 09:14:01;;;;;;;3.13;1.77;;;16.60;94.00;;;;;;4860739;29;20109;-84
2021/08/01 09:16:48;;;;;;;3.13;1.88;;;16.60;93.90;;;;;;4860151;29;20061;-84
2021/08/01 09:19:43;;;;;;;3.20;2.00;;;16.60;93.50;;;;;;4860557;29;20463;-84
2021/08/01 09:22:19;;;;;;;2.85;1.70;;;16.70;93.60;;;;;;4860104;29;20053;-84
2021/08/01 09:24:47;;;;;;;2.92;1.70;;;16.70;93.80;;;;;;4861099;29;20099;-83
2021/08/01 09:27:27;;;;;;;2.40;1.45;;;16.80;94.00;;;;;;4860583;29;20056;-84
2021/08/01 09:29:52;;;;;;;3.42;1.92;;;16.80;93.90;;;;;;4860025;29;20054;-84
2021/08/01 09:32:19;;;;;;;3.30;1.88;;;16.80;93.60;;;;;;4860398;29;20526;-84
2021/08/01 09:34:49;;;;;;;3.05;1.70;;;16.90;93.80;;;;;;4861042;29;20050;-84
2021/08/01 09:37:29;;;;;;;4.00;1.80;;;16.90;94.10;;;;;;4859526;29;20495;-84
2021/08/01 09:40:09;;;;;;;3.35;1.67;;;16.90;94.30;;;;;;4860763;29;20050;-85
2021/08/01 09:42:45;;;;;;;3.53;1.77;;;17.00;94.30;;;;;;4863519;29;20091;-84
2021/08/01 09:45:21;;;;;;;4.45;1.60;;;17.00;94.10;;;;;;4864104;29;20105;-83
2021/08/01 09:47:49;;;;;;;3.40;2.00;;;17.00;93.90;;;;;;4864357;29;20113;-85
2021/08/01 09:50:17;;;;;;;5.10;1.85;;;17.10;94.00;;;;;;4863088;29;20049;-84
2021/08/01 09:52:43;;;;;;;3.33;1.95;;;17.10;93.70;;;;;;4863969;29;20587;-84
2021/08/01 09:55:16;;;;;;;5.50;2.20;;;17.10;93.90;;;;;;4863948;29;20052;-85
2021/08/01 09:57:49;;;;;;;3.90;2.10;;;17.10;93.80;;;;;;4863350;29;20057;-85
2021/08/01 10:00:16;;;;;;;2.90;1.70;;;17.20;94.00;;;;;;4863786;29;20061;-85
2021/08/01 10:02:42;;;;;;;3.88;2.00;;;17.20;93.70;;;;;;4864122;29;20075;-85
2021/08/01 10:05:19;;;;;;;4.35;2.03;;;17.20;93.90;;;;;;4863206;29;20431;-86
2021/08/01 10:07:48;;;;;;;3.58;1.95;;;17.20;93.80;;;;;;4864323;29;20053;-86
2021/08/01 10:10:31;;;;;;;4.13;2.03;;;17.20;93.60;;;;;;4862360;29;20060;-86
2021/08/01 10:13:00;;;;;;;3.70;2.08;;;17.20;93.30;;;;;;4863792;29;20057;-86
2021/08/01 10:15:26;;;;;;;4.35;2.05;;;17.30;93.70;;;;;;4863899;29;20065;-88
2021/08/01 10:17:52;;;;;;;3.35;1.90;;;17.30;93.80;;;;;;4863102;29;20049;-86
2021/08/01 10:20:18;;;;;;;4.82;2.00;;;17.40;93.90;;;;;;4863397;29;20061;-86
2021/08/01 10:22:45;;;;;;;4.32;2.05;;;17.40;94.10;;;;;;4864004;29;20128;-86
2021/08/01 10:25:21;;;;;;;3.33;2.00;;;17.50;94.00;;;;;;4862748;29;20053;-86
2021/08/01 10:27:51;;;;;;;5.88;1.98;;;17.60;94.30;;;;;;4863698;29;20489;-87
2021/08/01 10:30:26;;;;;;;4.55;2.17;;;17.70;94.20;;;;;;4863569;29;20068;-89
2021/08/01 10:32:59;;;;;;;4.40;2.40;;;17.80;93.90;;;;;;4862973;29;20058;-88
2021/08/01 10:35:25;;;;;;;5.80;2.40;;;17.90;94.20;;;;;;4863542;29;20053;-87
2021/08/01 10:37:55;;;;;;;4.97;2.30;;;18.00;94.50;;;;;;4863244;29;20310;-87
2021/08/01 10:40:23;;;;;;;4.40;2.30;;;18.10;94.30;;;;;;4862452;29;20113;-88
2021/08/01 10:42:52;;;;;;;4.90;2.33;;;18.20;94.20;;;;;;4863128;29;20499;-87
2021/08/01 10:45:19;;;;;;;4.85;2.10;;;18.20;94.00;;;;;;4863251;29;20062;-88
2021/08/01 10:47:47;;;;;;;3.58;2.03;;;18.30;93.80;;;;;;4862600;29;20166;-88
2021/08/01 10:50:24;;;;;;;4.07;2.00;;;18.40;93.40;;;;;;4863001;29;20114;-88
2021/08/01 10:52:49;;;;;;;5.05;2.17;;;18.40;93.30;;;;;;4861463;29;20056;-88
2021/08/01 10:55:23;;;;;;;4.22;1.88;;;18.40;93.00;;;;;;4862804;29;20053;-88
2021/08/01 10:58:33;;;;;;;4.57;1.98;;;18.50;92.80;;;;;;4863140;29;20483;-88
2021/08/01 11:01:01;;;;;;;3.22;1.70;;;18.50;92.50;;;;;;4841444;29;20400;-89
2021/08/01 11:03:31;;;;;;;3.70;1.58;;;18.50;92.60;;;;;;4842665;29;20057;-88
2021/08/01 11:05:57;;;;;;;3.33;1.58;;;18.50;92.30;;;;;;4853991;29;20080;-88
2021/08/01 11:08:23;;;;;;;2.50;1.50;;;18.50;92.20;;;;;;4862364;29;20073;-88
2021/08/01 11:11:09;;;;;;;3.63;1.42;;;18.50;92.10;;;;;;4857389;29;20420;-89
2021/08/01 11:13:38;;;;;;;3.05;1.33;;;18.50;92.30;;;;;;4860574;29;20075;-88
2021/08/01 11:16:08;;;;;;;4.25;1.33;;;18.60;92.40;;;;;;4859453;29;20049;-87
2021/08/01 11:18:37;;;;;;;2.95;1.30;;;18.60;92.70;;;;;;4861471;29;20053;-88
2021/08/01 11:21:04;;;;;;;3.40;1.10;;;18.70;92.70;;;;;;4859070;29;20494;-88
2021/08/01 11:23:45;;;;;;;4.07;1.30;;;18.70;92.40;;;;;;4862026;29;20061;-88
2021/08/01 11:26:18;;;;;;;2.35;1.00;;;18.80;92.10;;;;;;4860120;29;20049;-86
2021/08/01 11:29:05;;;;;;;2.33;1.00;;;18.80;91.70;;;;;;4861497;29;20053;-91
2021/08/01 11:31:30;;;;;;;3.63;1.10;;;18.90;91.60;;;;;;4860230;29;20049;-89
2021/08/01 11:34:16;;;;;;;1.88;0.85;;;18.90;91.70;;;;;;4859223;29;20106;-89
2021/08/01 11:36:42;;;;;;;1.98;0.93;;;19.00;91.20;;;;;;4857968;29;20138;-89
2021/08/01 11:39:09;;;;;;;2.10;0.80;;;19.00;91.30;;;;;;4861547;29;20089;-91
2021/08/01 11:41:39;;;;;;;1.58;0.70;;;19.10;91.10;;;;;;4856498;29;20149;-94
2021/08/01 11:44:24;;;;;;;1.70;0.80;;;19.10;90.80;;;;;;4862943;29;20491;-91
2021/08/01 11:46:50;;;;;;;1.90;0.90;;;19.20;90.70;;;;;;4850072;29;20094;-87
2021/08/01 11:49:31;;;;;;;3.15;1.00;;;19.30;90.60;;;;;;4859716;29;20045;-93
2021/08/01 11:51:59;;;;;;;2.17;0.90;;;19.30;90.30;;;;;;4845089;29;20054;-91
2021/08/01 11:54:27;;;;;;;2.35;0.80;;;19.40;90.40;;;;;;4845231;29;20065;-93
2021/08/01 11:56:59;;;;;;;1.60;0.80;;;19.40;90.10;;;;;;4848196;29;20491;-92
2021/08/01 11:59:25;;;;;;;2.20;0.77;;;19.50;90.00;;;;;;4850067;29;20050;-93
2021/08/01 12:01:53;;;;;;;1.45;0.80;;;19.50;89.60;;;;;;4844972;29;20559;-92
2021/08/01 12:04:19;;;;;;;1.60;0.60;;;19.60;89.90;;;;;;4844092;29;20052;-91
2021/08/01 12:06:44;;;;;;;1.52;0.90;;;19.70;89.00;;;;;;4844093;29;20147;-86
2021/08/01 12:09:27;;;;;;;2.08;0.70;;;19.70;89.30;;;;;;4845379;29;20522;-90
2021/08/01 12:11:53;;;;;;;2.40;0.80;;;19.70;89.90;;;;;;4852933;29;20451;-83
2021/08/01 12:14:32;;;;;;;1.55;0.60;;;19.70;90.10;;;;;;4857156;29;20049;-84
2021/08/01 12:17:02;;;;;;;1.98;0.90;;;19.70;90.10;;;;;;4854642;29;20096;-84
2021/08/01 12:19:32;;;;;;;3.10;1.00;;;19.70;90.30;;;;;;4858846;29;20045;-80
2021/08/01 12:22:00;;;;;;;3.08;1.10;;;19.60;90.40;;;;;;4857652;29;20045;-82
2021/08/01 12:24:42;;;;;;;1.48;0.75;;;19.60;90.40;;;;;;4857995;29;20053;-83
2021/08/01 12:27:14;;;;;;;1.60;0.85;;;19.60;90.50;;;;;;4860090;29;20061;-83
2021/08/01 12:29:50;;;;;;;1.95;0.88;;;19.60;90.60;;;;;;4861132;29;20056;-84
2021/08/01 12:32:28;;;;;;;1.92;0.90;;;19.60;90.70;;;;;;4860278;29;20071;-84
2021/08/01 12:35:09;;;;;;;1.63;0.85;;;19.70;90.80;;;;;;4861575;29;20133;-85
2021/08/01 12:37:50;;;;;;;2.78;0.95;;;19.70;90.80;;;;;;4861593;29;20064;-85
2021/08/01 12:40:27;;;;;;;5.13;1.20;;;19.70;90.70;;;;;;4860170;29;20054;-84
2021/08/01 12:42:56;;;;;;;4.10;1.00;;;19.70;90.70;;;;;;4860898;29;20517;-86
2021/08/01 12:45:28;;;;;;;3.40;1.00;;;19.70;90.60;;;;;;4858908;29;20057;-86
2021/08/01 12:47:54;;;;;;;4.25;1.27;;;19.60;90.80;;;;;;4861171;29;20129;-86
2021/08/01 12:50:21;;;;;;;4.63;1.17;;;19.60;90.80;;;;;;4860812;29;20102;-86
2021/08/01 12:52:50;;;;;;;5.32;1.20;;;19.60;90.80;;;;;;4859955;29;20502;-86